Time;durP1;ratioP1;P1;durP2;ratioP2;P2;SDS_P1;SDS_P2;PMS_P1;PMS_P2;Temp;Humidity;BMP_temperature;BMP_pressure;BME280_temperature;BME280_humidity;BME280_pressure;Samples;Min_cycle;Max_cycle;Signal;HPM_P1;HPM_P2
2024/02/29 00:01:57;;;;;;;22.63;9.63;;;1.50;99.90;;;;;;5047731;28;20104;-72
2024/02/29 00:04:28;;;;;;;28.83;12.48;;;1.40;99.90;;;;;;5050077;28;20028;-72
2024/02/29 00:06:56;;;;;;;27.40;11.65;;;1.40;99.90;;;;;;5049387;28;20028;-72
2024/02/29 00:09:22;;;;;;;25.13;11.40;;;1.50;99.90;;;;;;5047026;28;20029;-71
2024/02/29 00:11:48;;;;;;;21.60;9.02;;;1.50;99.90;;;;;;5046361;28;20024;-72
2024/02/29 00:14:15;;;;;;;18.63;9.57;;;1.30;99.90;;;;;;5049931;28;20032;-72
2024/02/29 00:16:43;;;;;;;15.25;8.30;;;1.20;99.90;;;;;;5047231;28;20029;-71
2024/02/29 00:19:09;;;;;;;17.40;7.50;;;1.30;99.90;;;;;;5044806;28;20106;-71
2024/02/29 00:21:34;;;;;;;20.50;9.77;;;1.30;99.90;;;;;;5046377;28;20502;-72
2024/02/29 00:24:00;;;;;;;16.27;7.95;;;1.40;99.90;;;;;;5046526;28;20036;-71
2024/02/29 00:26:26;;;;;;;20.98;8.02;;;1.40;99.90;;;;;;5050400;28;20470;-71
2024/02/29 00:28:51;;;;;;;9.73;5.88;;;1.30;99.90;;;;;;5048832;28;20025;-71
2024/02/29 00:31:17;;;;;;;11.30;6.65;;;1.10;99.90;;;;;;5046709;28;20051;-71
2024/02/29 00:33:43;;;;;;;14.75;7.47;;;1.00;99.90;;;;;;5050488;28;20037;-71
2024/02/29 00:36:08;;;;;;;17.63;8.73;;;1.00;99.90;;;;;;5044778;28;20331;-72
2024/02/29 00:38:34;;;;;;;20.08;8.63;;;1.00;99.90;;;;;;5045993;28;20605;-71
2024/02/29 00:40:59;;;;;;;19.95;9.68;;;1.10;99.90;;;;;;5044548;28;20032;-71
2024/02/29 00:43:25;;;;;;;19.50;10.07;;;1.10;99.90;;;;;;5044647;28;20552;-71
2024/02/29 00:45:52;;;;;;;19.20;9.95;;;1.10;99.90;;;;;;5046716;28;20040;-72
2024/02/29 00:48:17;;;;;;;16.08;8.13;;;1.10;99.90;;;;;;5044942;28;20448;-71
2024/02/29 00:50:43;;;;;;;14.45;8.10;;;1.00;99.90;;;;;;5045557;28;20073;-71
2024/02/29 00:53:09;;;;;;;15.00;7.82;;;1.00;99.90;;;;;;5042590;28;20575;-71
2024/02/29 00:55:35;;;;;;;17.20;8.27;;;0.90;99.90;;;;;;5041329;28;20391;-71
2024/02/29 00:58:00;;;;;;;17.08;8.75;;;0.90;99.90;;;;;;5046211;28;20112;-71
2024/02/29 01:00:26;;;;;;;15.27;7.90;;;0.90;99.90;;;;;;5042473;28;20043;-71
2024/02/29 01:02:52;;;;;;;24.00;11.05;;;0.90;99.90;;;;;;5047447;28;20039;-70
2024/02/29 01:05:18;;;;;;;24.95;11.38;;;0.90;99.90;;;;;;5046887;28;20025;-71
2024/02/29 01:07:43;;;;;;;17.98;9.45;;;0.90;99.90;;;;;;5046456;28;20028;-70
2024/02/29 01:10:14;;;;;;;18.98;9.27;;;0.90;99.90;;;;;;5045288;28;20072;-71
2024/02/29 01:12:41;;;;;;;19.98;9.55;;;0.90;99.90;;;;;;5042686;28;20029;-72
2024/02/29 01:15:13;;;;;;;17.13;8.68;;;0.90;99.90;;;;;;5047297;28;20482;-72
2024/02/29 01:17:41;;;;;;;19.27;10.10;;;1.00;99.90;;;;;;5045270;28;20601;-72
2024/02/29 01:20:08;;;;;;;22.45;9.32;;;1.00;99.90;;;;;;5043887;28;20056;-71
2024/02/29 01:22:37;;;;;;;17.85;9.00;;;1.00;99.90;;;;;;5047765;28;20029;-72
2024/02/29 01:25:04;;;;;;;18.80;9.55;;;1.00;99.90;;;;;;5043373;28;20056;-72
2024/02/29 01:27:30;;;;;;;14.85;7.60;;;0.90;99.90;;;;;;5042244;28;20518;-71
2024/02/29 01:29:55;;;;;;;18.80;8.18;;;0.90;99.90;;;;;;5042637;28;20483;-71
2024/02/29 01:32:21;;;;;;;20.02;9.48;;;0.90;99.90;;;;;;5045014;28;20103;-72
2024/02/29 01:34:47;;;;;;;17.50;8.55;;;0.90;99.90;;;;;;5045576;28;20032;-71
2024/02/29 01:37:14;;;;;;;20.52;10.13;;;0.80;99.90;;;;;;5048249;28;20044;-71
2024/02/29 01:39:41;;;;;;;17.77;7.90;;;0.80;99.90;;;;;;5045778;28;20033;-71
2024/02/29 01:42:07;;;;;;;12.10;7.57;;;0.70;99.90;;;;;;5050773;28;20032;-71
2024/02/29 01:44:32;;;;;;;10.35;6.68;;;0.60;99.90;;;;;;5049997;28;20433;-71
2024/02/29 01:46:59;;;;;;;16.02;8.32;;;0.60;99.90;;;;;;5048659;28;20055;-70
2024/02/29 01:49:26;;;;;;;18.88;7.47;;;0.40;99.90;;;;;;5051557;28;20044;-71
2024/02/29 01:51:53;;;;;;;13.75;8.10;;;0.40;99.90;;;;;;5050957;28;20096;-70
2024/02/29 01:54:19;;;;;;;14.75;7.60;;;0.40;99.90;;;;;;5051016;28;20119;-71
2024/02/29 01:56:46;;;;;;;21.75;9.00;;;0.60;99.90;;;;;;5046369;28;20184;-72
2024/02/29 01:59:13;;;;;;;26.98;10.45;;;0.60;99.90;;;;;;5047226;28;20037;-72
2024/02/29 02:01:39;;;;;;;24.20;10.93;;;0.60;99.90;;;;;;5031632;28;20505;-71
2024/02/29 02:04:04;;;;;;;27.38;12.55;;;0.70;99.90;;;;;;5028223;28;20044;-71
2024/02/29 02:06:30;;;;;;;26.63;12.68;;;0.70;99.90;;;;;;5029855;28;20026;-70
2024/02/29 02:08:56;;;;;;;29.35;11.60;;;0.70;99.90;;;;;;5030325;28;20041;-71
2024/02/29 02:11:22;;;;;;;32.58;13.07;;;0.70;99.90;;;;;;5029694;28;20195;-71
2024/02/29 02:13:47;;;;;;;39.35;14.52;;;0.70;99.90;;;;;;5024153;28;20036;-70
2024/02/29 02:16:14;;;;;;;22.50;10.73;;;0.70;99.90;;;;;;5026341;28;20398;-72
2024/02/29 02:18:39;;;;;;;16.80;10.75;;;0.70;99.90;;;;;;5032106;28;20087;-70
2024/02/29 02:21:05;;;;;;;29.70;13.65;;;0.70;99.90;;;;;;5029247;28;20494;-71
2024/02/29 02:23:31;;;;;;;30.92;11.52;;;0.50;99.90;;;;;;5028348;28;20651;-71
2024/02/29 02:26:00;;;;;;;28.15;12.13;;;0.40;99.90;;;;;;5022547;28;20545;-71
2024/02/29 02:28:26;;;;;;;28.80;12.13;;;0.40;99.90;;;;;;5029630;28;20026;-72
2024/02/29 02:30:52;;;;;;;23.98;9.63;;;0.40;99.90;;;;;;5026798;28;20038;-70
2024/02/29 02:33:19;;;;;;;46.00;11.75;;;0.40;99.90;;;;;;5050029;28;20054;-71
2024/02/29 02:35:45;;;;;;;19.92;9.82;;;0.40;99.90;;;;;;5050300;28;20078;-71
2024/02/29 02:38:10;;;;;;;26.17;10.50;;;0.40;99.90;;;;;;5043854;28;20301;-71
2024/02/29 02:40:36;;;;;;;26.52;11.63;;;0.50;99.90;;;;;;5047472;28;20124;-71
2024/02/29 02:43:02;;;;;;;25.30;11.30;;;0.30;99.90;;;;;;5047837;28;20026;-70
2024/02/29 02:45:28;;;;;;;24.40;10.23;;;0.30;99.90;;;;;;5049635;28;20066;-72
2024/02/29 02:47:54;;;;;;;27.15;11.98;;;0.30;99.90;;;;;;5044719;28;20482;-71
2024/02/29 02:50:19;;;;;;;20.88;10.52;;;0.40;99.90;;;;;;5046590;28;20041;-72
2024/02/29 02:52:45;;;;;;;27.30;9.63;;;0.40;99.90;;;;;;5047970;28;20040;-72
2024/02/29 02:55:11;;;;;;;18.85;10.70;;;0.50;99.90;;;;;;5049294;28;20095;-71
2024/02/29 02:57:37;;;;;;;22.52;10.23;;;0.50;99.90;;;;;;5049198;28;20036;-72
2024/02/29 03:00:04;;;;;;;24.15;11.13;;;0.50;99.90;;;;;;5046208;28;20083;-71
2024/02/29 03:02:29;;;;;;;24.45;10.63;;;0.60;99.90;;;;;;5049546;28;20494;-71
2024/02/29 03:04:55;;;;;;;31.15;12.32;;;0.60;99.90;;;;;;5045477;28;20029;-71
2024/02/29 03:07:21;;;;;;;30.63;10.95;;;0.60;99.90;;;;;;5044020;28;20304;-72
2024/02/29 03:09:47;;;;;;;17.50;10.52;;;0.60;99.90;;;;;;5044806;28;20052;-73
2024/02/29 03:12:13;;;;;;;18.08;10.85;;;0.70;99.90;;;;;;5044431;28;20025;-72
2024/02/29 03:14:39;;;;;;;21.67;10.75;;;0.70;99.90;;;;;;5047448;28;20662;-71
2024/02/29 03:17:04;;;;;;;14.77;9.43;;;0.60;99.90;;;;;;5048427;28;20040;-72
2024/02/29 03:19:30;;;;;;;21.65;10.48;;;0.70;99.90;;;;;;5045447;28;20040;-71
2024/02/29 03:21:56;;;;;;;21.95;9.93;;;0.70;99.90;;;;;;5048288;28;20217;-72
2024/02/29 03:24:21;;;;;;;14.45;8.85;;;0.80;99.90;;;;;;5050930;28;20025;-71
2024/02/29 03:26:47;;;;;;;22.90;10.57;;;0.80;99.90;;;;;;5050210;28;20024;-73
2024/02/29 03:29:13;;;;;;;20.90;10.75;;;0.80;99.90;;;;;;5046179;28;20025;-73
2024/02/29 03:31:43;;;;;;;15.02;8.70;;;0.70;99.90;;;;;;5043445;28;20033;-74
2024/02/29 03:34:08;;;;;;;24.42;10.27;;;0.80;99.90;;;;;;5047809;28;20094;-71
2024/02/29 03:36:34;;;;;;;20.00;10.32;;;0.80;99.90;;;;;;5046066;28;20033;-72
2024/02/29 03:38:59;;;;;;;27.15;10.77;;;0.70;99.90;;;;;;5052784;28;20033;-72
2024/02/29 03:41:26;;;;;;;21.58;10.05;;;0.60;99.90;;;;;;5046994;28;20032;-72
2024/02/29 03:43:52;;;;;;;16.40;9.30;;;0.60;99.90;;;;;;5051643;28;20075;-71
2024/02/29 03:46:17;;;;;;;15.15;8.07;;;0.60;99.90;;;;;;5048238;28;20025;-71
2024/02/29 03:48:43;;;;;;;18.92;10.82;;;0.60;99.90;;;;;;5053087;28;20450;-71
2024/02/29 03:51:09;;;;;;;15.90;9.30;;;0.60;99.90;;;;;;5050890;28;20037;-73
2024/02/29 03:53:34;;;;;;;19.30;9.05;;;0.60;99.90;;;;;;5055012;28;20028;-72
2024/02/29 03:56:00;;;;;;;18.63;9.30;;;0.60;99.90;;;;;;5058394;28;20245;-71
2024/02/29 03:58:26;;;;;;;14.45;8.60;;;0.70;99.90;;;;;;5053120;28;20017;-71
2024/02/29 04:00:52;;;;;;;21.75;10.68;;;0.80;99.90;;;;;;5064996;28;20650;-71
2024/02/29 04:03:17;;;;;;;16.85;9.00;;;0.80;99.90;;;;;;5060999;28;20033;-71
2024/02/29 04:05:43;;;;;;;18.88;9.75;;;0.80;99.90;;;;;;5057731;28;20168;-71
2024/02/29 04:08:12;;;;;;;26.65;10.57;;;0.90;99.90;;;;;;5063101;28;20024;-71
2024/02/29 04:10:44;;;;;;;18.45;10.25;;;0.80;99.90;;;;;;5065898;28;20029;-71
2024/02/29 04:13:10;;;;;;;20.02;9.73;;;0.80;99.90;;;;;;5063718;28;20104;-71
2024/02/29 04:15:36;;;;;;;19.80;10.45;;;0.80;99.90;;;;;;5066281;28;20041;-72
2024/02/29 04:18:02;;;;;;;14.73;8.57;;;0.80;99.90;;;;;;5041786;28;20032;-71
2024/02/29 04:20:28;;;;;;;19.35;9.57;;;0.80;99.90;;;;;;5046201;28;20045;-72
2024/02/29 04:22:54;;;;;;;16.83;8.63;;;0.80;99.90;;;;;;5045610;28;20073;-72
2024/02/29 04:25:22;;;;;;;21.27;9.38;;;0.90;99.90;;;;;;5044618;28;20102;-72
2024/02/29 04:27:49;;;;;;;21.45;10.13;;;0.90;99.90;;;;;;5043539;28;20017;-71
2024/02/29 04:30:16;;;;;;;19.10;8.43;;;0.90;99.90;;;;;;5045824;28;20025;-72
2024/02/29 04:32:42;;;;;;;18.50;10.45;;;0.90;99.90;;;;;;5042598;28;20044;-71
2024/02/29 04:35:09;;;;;;;20.55;10.35;;;0.90;99.90;;;;;;5044931;28;20033;-73
2024/02/29 04:37:35;;;;;;;23.23;10.70;;;1.00;99.90;;;;;;5041207;28;20040;-73
2024/02/29 04:40:00;;;;;;;19.48;10.68;;;1.00;99.90;;;;;;5043845;28;20390;-72
2024/02/29 04:42:26;;;;;;;24.10;10.75;;;1.10;99.90;;;;;;5043117;28;20235;-70
2024/02/29 04:44:52;;;;;;;24.60;10.45;;;1.20;99.90;;;;;;5047159;28;20025;-75
2024/02/29 04:47:18;;;;;;;20.48;10.32;;;1.20;99.90;;;;;;5050898;28;20398;-71
2024/02/29 04:49:44;;;;;;;26.13;9.18;;;1.30;99.90;;;;;;5046834;28;20064;-72
2024/02/29 04:52:09;;;;;;;19.73;11.32;;;1.20;99.90;;;;;;5051530;28;20036;-72
2024/02/29 04:54:37;;;;;;;20.38;9.52;;;1.30;99.90;;;;;;5048087;28;20035;-71
2024/02/29 04:57:02;;;;;;;20.02;10.15;;;1.30;99.90;;;;;;5046137;28;20074;-73
2024/02/29 04:59:28;;;;;;;16.13;9.32;;;1.20;99.90;;;;;;5044465;28;20398;-73
2024/02/29 05:01:54;;;;;;;18.83;9.73;;;1.30;99.90;;;;;;5042786;28;20395;-73
2024/02/29 05:04:19;;;;;;;21.92;10.93;;;1.30;99.90;;;;;;5044429;28;20025;-71
2024/02/29 05:06:45;;;;;;;16.35;9.40;;;1.30;99.90;;;;;;5044711;28;20506;-72
2024/02/29 05:09:11;;;;;;;17.23;9.00;;;1.20;99.90;;;;;;5041802;28;20096;-72
2024/02/29 05:11:37;;;;;;;19.17;9.52;;;1.20;99.90;;;;;;5043221;28;20227;-72
2024/02/29 05:14:05;;;;;;;18.15;9.98;;;1.20;99.90;;;;;;5042814;28;20025;-72
2024/02/29 05:16:31;;;;;;;18.53;9.93;;;1.20;99.90;;;;;;5044956;28;20033;-72
2024/02/29 05:18:56;;;;;;;17.95;9.57;;;1.20;99.90;;;;;;5046888;28;20298;-72
2024/02/29 05:21:22;;;;;;;21.70;10.02;;;1.20;99.90;;;;;;5042668;28;20032;-72
2024/02/29 05:23:48;;;;;;;18.63;9.63;;;1.20;99.90;;;;;;5042049;28;20028;-72
2024/02/29 05:26:13;;;;;;;21.58;9.75;;;1.20;99.90;;;;;;5045189;28;20130;-71
2024/02/29 05:28:39;;;;;;;21.45;10.10;;;1.20;99.90;;;;;;5043007;28;20025;-71
2024/02/29 05:31:05;;;;;;;19.70;8.68;;;1.20;99.90;;;;;;5043874;28;20033;-71
2024/02/29 05:33:31;;;;;;;24.90;11.25;;;1.10;99.90;;;;;;5047539;28;20128;-71
2024/02/29 05:35:56;;;;;;;23.80;10.10;;;1.10;99.90;;;;;;5046532;28;20032;-71
2024/02/29 05:38:22;;;;;;;19.63;10.75;;;1.20;99.90;;;;;;5044304;28;20497;-70
2024/02/29 05:40:47;;;;;;;15.57;8.52;;;1.20;99.90;;;;;;5037264;28;20025;-71
2024/02/29 05:43:16;;;;;;;18.52;8.23;;;1.10;99.90;;;;;;5041064;28;20033;-71
2024/02/29 05:45:42;;;;;;;19.67;9.07;;;1.00;99.90;;;;;;5041638;28;20473;-70
2024/02/29 05:48:08;;;;;;;15.82;8.93;;;1.00;99.90;;;;;;5042721;28;20028;-72
2024/02/29 05:50:34;;;;;;;20.65;9.75;;;1.00;99.90;;;;;;5044416;28;20049;-71
2024/02/29 05:52:59;;;;;;;17.05;10.23;;;1.10;99.90;;;;;;5044477;28;20469;-71
2024/02/29 05:55:25;;;;;;;18.83;9.90;;;1.10;99.90;;;;;;5038638;28;20061;-73
2024/02/29 05:57:51;;;;;;;18.27;9.35;;;1.10;99.90;;;;;;5041154;28;20087;-70
2024/02/29 06:00:17;;;;;;;21.00;9.73;;;1.10;99.90;;;;;;5042897;28;20045;-71
2024/02/29 06:02:43;;;;;;;22.42;10.63;;;1.00;99.90;;;;;;5039581;28;20325;-70
2024/02/29 06:05:09;;;;;;;20.25;10.02;;;1.00;99.90;;;;;;5043412;28;20033;-71
2024/02/29 06:07:36;;;;;;;17.00;10.05;;;1.00;99.90;;;;;;5040057;28;20029;-72
2024/02/29 06:10:03;;;;;;;20.38;10.13;;;1.10;99.90;;;;;;5041869;28;20055;-74
2024/02/29 06:12:30;;;;;;;18.42;9.93;;;1.10;99.90;;;;;;5040025;28;20549;-72
2024/02/29 06:14:56;;;;;;;18.08;10.43;;;1.10;99.90;;;;;;5042059;28;20025;-72
2024/02/29 06:17:22;;;;;;;30.85;10.93;;;1.10;99.90;;;;;;5039415;28;20064;-72
2024/02/29 06:19:51;;;;;;;22.38;9.45;;;1.10;99.90;;;;;;5043119;28;20059;-73
2024/02/29 06:22:18;;;;;;;22.33;11.02;;;1.10;99.90;;;;;;5045984;28;20583;-73
2024/02/29 06:24:44;;;;;;;27.77;11.57;;;1.10;99.90;;;;;;5046563;28;20033;-74
2024/02/29 06:27:09;;;;;;;20.17;10.77;;;1.10;99.90;;;;;;5043543;28;20393;-74
2024/02/29 06:29:35;;;;;;;21.92;9.85;;;1.00;99.90;;;;;;5044504;28;20090;-72
2024/02/29 06:32:01;;;;;;;20.63;12.48;;;1.00;99.90;;;;;;5046783;28;20343;-73
2024/02/29 06:34:27;;;;;;;21.15;9.60;;;1.10;99.90;;;;;;5040741;28;20737;-72
2024/02/29 06:36:54;;;;;;;28.23;10.80;;;1.10;99.90;;;;;;5045533;28;20041;-71
2024/02/29 06:39:19;;;;;;;24.42;11.77;;;1.20;99.90;;;;;;5044796;28;20029;-72
2024/02/29 06:41:45;;;;;;;23.90;11.70;;;1.20;99.90;;;;;;5045267;28;20470;-71
2024/02/29 06:44:12;;;;;;;24.10;9.95;;;1.20;99.90;;;;;;5044403;28;20086;-72
2024/02/29 06:46:37;;;;;;;23.52;10.27;;;1.20;99.90;;;;;;5048989;28;20185;-72
2024/02/29 06:49:04;;;;;;;27.67;10.27;;;1.10;99.90;;;;;;5049364;28;20033;-72
2024/02/29 06:51:30;;;;;;;20.73;10.20;;;1.10;99.90;;;;;;5045747;28;20056;-72
2024/02/29 06:53:56;;;;;;;18.08;11.55;;;1.10;99.90;;;;;;5045971;28;20116;-72
2024/02/29 06:56:22;;;;;;;21.85;10.45;;;1.10;99.90;;;;;;5050260;28;20440;-72
2024/02/29 06:58:48;;;;;;;17.90;9.85;;;1.20;99.90;;;;;;5050600;28;20482;-72
2024/02/29 07:01:14;;;;;;;19.70;10.02;;;1.20;99.90;;;;;;5051754;28;20037;-72
2024/02/29 07:03:40;;;;;;;23.02;10.45;;;1.30;99.90;;;;;;5048265;28;20040;-72
2024/02/29 07:06:06;;;;;;;19.85;9.60;;;1.30;99.90;;;;;;5053863;28;20029;-72
2024/02/29 07:08:34;;;;;;;20.17;10.68;;;1.30;99.90;;;;;;5050043;28;20086;-72
2024/02/29 07:11:01;;;;;;;25.25;10.98;;;1.40;99.90;;;;;;5042298;28;20100;-70
2024/02/29 07:13:26;;;;;;;25.20;12.85;;;1.40;99.90;;;;;;5050315;28;20032;-71
2024/02/29 07:15:53;;;;;;;23.25;11.32;;;1.40;99.90;;;;;;5048348;28;20387;-71
2024/02/29 07:18:19;;;;;;;27.83;14.07;;;1.30;99.90;;;;;;5045096;28;20089;-71
2024/02/29 07:20:45;;;;;;;28.88;14.23;;;1.40;99.90;;;;;;5048435;28;20028;-72
2024/02/29 07:23:11;;;;;;;33.35;14.48;;;1.50;99.90;;;;;;5047861;28;20386;-71
2024/02/29 07:25:36;;;;;;;33.25;15.30;;;1.50;99.90;;;;;;5044547;28;20025;-73
2024/02/29 07:28:05;;;;;;;33.95;15.23;;;1.60;99.90;;;;;;5048117;28;20534;-71
2024/02/29 07:30:31;;;;;;;41.17;17.67;;;1.60;99.90;;;;;;5044388;28;20361;-72
2024/02/29 07:33:04;;;;;;;37.65;16.70;;;1.70;99.90;;;;;;5044294;28;20025;-72
2024/02/29 07:35:31;;;;;;;45.00;15.52;;;1.70;99.90;;;;;;5045461;28;20028;-73
2024/02/29 07:37:57;;;;;;;41.10;16.27;;;1.80;99.90;;;;;;5042996;28;20029;-72
2024/02/29 07:40:23;;;;;;;40.13;19.02;;;1.90;99.90;;;;;;5048367;28;20036;-73
2024/02/29 07:42:48;;;;;;;38.65;17.10;;;2.00;99.90;;;;;;5045663;28;21211;-74
2024/02/29 07:45:15;;;;;;;44.42;17.67;;;2.00;99.90;;;;;;5043811;28;20053;-71
2024/02/29 07:47:40;;;;;;;44.30;18.05;;;2.00;99.90;;;;;;5047157;28;20383;-72
2024/02/29 07:50:09;;;;;;;43.45;18.00;;;2.10;99.90;;;;;;5039792;28;20098;-72
2024/02/29 07:52:36;;;;;;;31.90;15.30;;;2.10;99.90;;;;;;5043836;28;20032;-71
2024/02/29 07:55:02;;;;;;;38.50;18.73;;;2.20;99.90;;;;;;5047120;28;20269;-72
2024/02/29 07:57:28;;;;;;;37.70;17.35;;;2.30;99.90;;;;;;5047935;28;20028;-72
2024/02/29 07:59:53;;;;;;;38.78;16.95;;;2.30;99.90;;;;;;5046716;28;20432;-72
2024/02/29 08:02:19;;;;;;;46.42;18.83;;;2.30;99.90;;;;;;5037609;28;20498;-72
2024/02/29 08:04:45;;;;;;;39.42;16.63;;;2.40;99.90;;;;;;5043514;28;20025;-71
2024/02/29 08:07:11;;;;;;;38.05;17.70;;;2.40;99.90;;;;;;5044368;28;20021;-74
2024/02/29 08:09:37;;;;;;;40.30;16.17;;;2.40;99.90;;;;;;5041972;28;20499;-76
2024/02/29 08:12:03;;;;;;;40.53;16.52;;;2.50;99.90;;;;;;5043302;28;20048;-74
2024/02/29 08:14:29;;;;;;;39.72;17.38;;;2.50;99.90;;;;;;5044631;28;20729;-74
2024/02/29 08:16:55;;;;;;;37.55;16.17;;;2.60;99.90;;;;;;5041257;28;20469;-73
2024/02/29 08:19:20;;;;;;;39.30;18.42;;;2.70;99.90;;;;;;5041945;28;20032;-73
2024/02/29 08:21:47;;;;;;;33.75;14.63;;;2.80;99.90;;;;;;5042472;28;20053;-73
2024/02/29 08:24:14;;;;;;;36.17;16.67;;;2.80;99.90;;;;;;5046343;28;20021;-73
2024/02/29 08:26:39;;;;;;;40.80;18.00;;;2.90;99.90;;;;;;5043333;28;20400;-73
2024/02/29 08:29:05;;;;;;;43.08;17.08;;;2.90;99.90;;;;;;5042308;28;20104;-74
2024/02/29 08:31:31;;;;;;;43.30;19.40;;;3.00;99.90;;;;;;5037468;28;20473;-73
2024/02/29 08:33:57;;;;;;;33.38;16.15;;;3.00;99.90;;;;;;5030024;28;20056;-73
2024/02/29 08:36:22;;;;;;;38.78;18.00;;;3.10;99.90;;;;;;5025272;28;20726;-73
2024/02/29 08:38:49;;;;;;;43.63;18.00;;;3.20;99.90;;;;;;5029727;28;20029;-73
2024/02/29 08:41:15;;;;;;;42.25;18.13;;;3.30;99.90;;;;;;5028338;28;20028;-72
2024/02/29 08:43:42;;;;;;;43.95;16.98;;;3.40;99.90;;;;;;5021780;28;20425;-72
2024/02/29 08:46:08;;;;;;;39.80;17.65;;;3.40;99.90;;;;;;5029610;28;20470;-72
2024/02/29 08:48:35;;;;;;;38.40;16.80;;;3.50;99.90;;;;;;5025911;28;20031;-72
2024/02/29 08:51:00;;;;;;;40.63;17.73;;;3.60;99.90;;;;;;5025897;28;20049;-73
2024/02/29 08:53:26;;;;;;;47.08;20.40;;;3.70;99.90;;;;;;5025703;28;20090;-73
2024/02/29 08:55:52;;;;;;;46.13;19.35;;;3.80;99.90;;;;;;5025476;28;20034;-73
2024/02/29 08:58:17;;;;;;;39.60;17.02;;;3.90;99.90;;;;;;5028837;28;20578;-72
2024/02/29 09:00:44;;;;;;;46.35;17.45;;;3.90;99.90;;;;;;5025490;28;20124;-71
2024/02/29 09:03:10;;;;;;;39.60;19.67;;;4.00;99.90;;;;;;5046308;28;20469;-73
2024/02/29 09:05:36;;;;;;;48.22;20.65;;;4.00;99.90;;;;;;5047418;28;20032;-74
2024/02/29 09:08:02;;;;;;;40.28;18.63;;;4.10;99.90;;;;;;5042050;28;20036;-73
2024/02/29 09:10:28;;;;;;;42.75;17.98;;;4.20;99.90;;;;;;5044158;28;20044;-73
2024/02/29 09:12:54;;;;;;;44.05;19.13;;;4.30;99.90;;;;;;5042605;28;20029;-73
2024/02/29 09:15:20;;;;;;;46.03;19.38;;;4.30;99.90;;;;;;5047738;28;20021;-73
2024/02/29 09:17:46;;;;;;;38.70;18.85;;;4.40;99.90;;;;;;5046879;28;20055;-73
2024/02/29 09:20:11;;;;;;;46.30;19.35;;;4.60;99.90;;;;;;5046558;28;20462;-74
2024/02/29 09:22:37;;;;;;;38.83;17.88;;;4.70;99.90;;;;;;5044408;28;20555;-73
2024/02/29 09:25:04;;;;;;;36.70;18.08;;;4.70;99.90;;;;;;5044875;28;20067;-73
2024/02/29 09:27:29;;;;;;;46.28;19.05;;;4.80;99.90;;;;;;5045736;28;20029;-73
2024/02/29 09:29:55;;;;;;;47.17;21.60;;;4.90;99.90;;;;;;5043636;28;20422;-72
2024/02/29 09:32:20;;;;;;;43.58;18.67;;;5.10;99.90;;;;;;5045301;28;20025;-73
2024/02/29 09:34:46;;;;;;;39.50;19.23;;;5.20;99.90;;;;;;5035976;28;20108;-73
2024/02/29 09:37:12;;;;;;;42.15;18.92;;;5.20;99.90;;;;;;5047847;28;20031;-73
2024/02/29 09:39:37;;;;;;;42.65;19.20;;;5.30;99.90;;;;;;5043007;28;20064;-74
2024/02/29 09:42:04;;;;;;;46.95;18.60;;;5.50;99.90;;;;;;5045994;28;20021;-73
2024/02/29 09:44:32;;;;;;;44.00;19.08;;;5.60;99.90;;;;;;5044619;28;20057;-73
2024/02/29 09:47:00;;;;;;;50.53;20.17;;;5.70;99.90;;;;;;5031633;28;20618;-72
2024/02/29 09:49:28;;;;;;;52.13;18.80;;;5.70;99.90;;;;;;5042526;28;20052;-73
2024/02/29 09:51:53;;;;;;;43.28;18.52;;;5.80;99.90;;;;;;5045588;28;20501;-75
2024/02/29 09:54:21;;;;;;;52.88;19.70;;;5.90;99.90;;;;;;5045933;28;20029;-74
2024/02/29 09:56:50;;;;;;;40.75;17.15;;;6.00;99.90;;;;;;5046567;28;20478;-73
2024/02/29 09:59:17;;;;;;;45.63;17.48;;;6.10;99.90;;;;;;5044881;28;20044;-74
2024/02/29 10:01:51;;;;;;;40.17;16.65;;;6.20;99.90;;;;;;5046730;28;20032;-76
2024/02/29 10:04:18;;;;;;;45.53;18.40;;;6.30;99.90;;;;;;5046890;28;20323;-73
2024/02/29 10:06:43;;;;;;;45.65;19.10;;;6.40;99.90;;;;;;5051110;28;20035;-73
2024/02/29 10:09:09;;;;;;;45.42;18.63;;;6.60;99.90;;;;;;5050218;28;20111;-72
2024/02/29 10:11:41;;;;;;;44.25;19.00;;;6.50;99.90;;;;;;5048392;28;20637;-75
2024/02/29 10:14:21;;;;;;;42.22;17.65;;;6.60;99.90;;;;;;5047054;28;20505;-72
2024/02/29 10:16:51;;;;;;;38.53;16.40;;;6.70;99.90;;;;;;5043064;28;20044;-73
2024/02/29 10:19:18;;;;;;;41.65;17.50;;;6.80;99.90;;;;;;5048958;28;20044;-74
2024/02/29 10:21:43;;;;;;;38.67;17.25;;;6.90;99.90;;;;;;5046670;28;20059;-72
2024/02/29 10:24:09;;;;;;;35.50;16.92;;;6.90;99.90;;;;;;5045369;28;20383;-74
2024/02/29 10:26:35;;;;;;;34.95;17.02;;;7.10;99.90;;;;;;5048226;28;20538;-74
2024/02/29 10:29:05;;;;;;;34.90;14.65;;;7.10;99.90;;;;;;5046733;28;20553;-73
2024/02/29 10:31:30;;;;;;;38.85;16.02;;;7.10;99.90;;;;;;5040428;28;20044;-74
2024/02/29 10:33:56;;;;;;;36.15;16.77;;;7.20;99.90;;;;;;5048092;28;20029;-73
2024/02/29 10:36:23;;;;;;;34.42;14.68;;;7.30;99.90;;;;;;5046046;28;20033;-73
2024/02/29 10:38:49;;;;;;;28.77;14.13;;;7.30;99.90;;;;;;5044012;28;20068;-74
2024/02/29 10:41:16;;;;;;;39.53;17.63;;;7.30;99.90;;;;;;5050353;28;20043;-76
2024/02/29 10:43:47;;;;;;;47.10;18.75;;;7.30;99.90;;;;;;5050136;28;20257;-76
2024/02/29 10:46:15;;;;;;;40.00;17.67;;;7.20;99.90;;;;;;5047892;28;20064;-75
2024/02/29 10:49:10;;;;;;;41.40;17.70;;;7.30;99.90;;;;;;5051302;28;20385;-74
2024/02/29 10:51:52;;;;;;;38.00;15.77;;;7.30;99.90;;;;;;5046842;28;20041;-73
2024/02/29 10:54:27;;;;;;;41.75;18.35;;;7.20;99.90;;;;;;5048362;28;20040;-74
2024/02/29 10:56:54;;;;;;;39.17;17.65;;;7.30;99.90;;;;;;5047243;28;20032;-75
2024/02/29 10:59:20;;;;;;;38.28;17.35;;;7.30;99.90;;;;;;5044299;28;20030;-75
2024/02/29 11:01:47;;;;;;;37.97;16.65;;;7.20;99.90;;;;;;5047547;28;20506;-72
2024/02/29 11:04:16;;;;;;;36.47;17.55;;;7.20;99.90;;;;;;5044905;28;20587;-73
2024/02/29 11:06:45;;;;;;;43.30;18.38;;;7.20;99.90;;;;;;5044821;28;20482;-73
2024/02/29 11:09:16;;;;;;;34.67;17.33;;;7.20;99.90;;;;;;5048444;28;20490;-74
2024/02/29 11:11:47;;;;;;;38.70;17.60;;;7.10;99.90;;;;;;5043302;28;20032;-74
2024/02/29 11:14:15;;;;;;;37.28;18.17;;;7.10;99.90;;;;;;5047485;28;20474;-75
2024/02/29 11:16:48;;;;;;;34.30;15.77;;;7.10;99.90;;;;;;5046804;28;20261;-75
2024/02/29 11:19:16;;;;;;;35.00;17.23;;;7.10;99.90;;;;;;5048299;28;20032;-74
2024/02/29 11:21:41;;;;;;;36.10;17.03;;;7.20;99.90;;;;;;5044752;28;20049;-74
2024/02/29 11:24:09;;;;;;;38.33;17.27;;;7.20;99.90;;;;;;5045863;28;20052;-74
2024/02/29 11:26:36;;;;;;;32.28;15.38;;;7.20;99.90;;;;;;5041156;28;20048;-76
2024/02/29 11:29:12;;;;;;;38.67;15.90;;;7.20;99.90;;;;;;5043904;28;20053;-74
2024/02/29 11:31:43;;;;;;;32.55;15.50;;;7.30;99.90;;;;;;5043112;28;20025;-71
2024/02/29 11:34:08;;;;;;;38.58;15.70;;;7.30;99.90;;;;;;5046903;28;20423;-74
2024/02/29 11:36:36;;;;;;;35.00;15.75;;;7.20;99.90;;;;;;5049804;28;20211;-74
2024/02/29 11:39:03;;;;;;;33.33;15.77;;;7.30;99.90;;;;;;5046393;28;20036;-74
2024/02/29 11:41:28;;;;;;;35.50;15.60;;;7.30;99.90;;;;;;5051096;28;20529;-72
2024/02/29 11:43:54;;;;;;;36.65;14.52;;;7.30;99.90;;;;;;5047182;28;20049;-75
2024/02/29 11:46:20;;;;;;;28.90;13.35;;;7.30;99.90;;;;;;5047152;28;20049;-73
2024/02/29 11:48:48;;;;;;;23.88;12.45;;;7.30;99.90;;;;;;5045449;28;20331;-73
2024/02/29 11:51:14;;;;;;;24.33;11.47;;;7.30;99.90;;;;;;5045474;28;20039;-74
2024/02/29 11:53:39;;;;;;;22.70;10.63;;;7.30;99.90;;;;;;5050227;28;20025;-73
2024/02/29 11:56:05;;;;;;;25.25;10.98;;;7.40;99.90;;;;;;5046967;28;20043;-74
2024/02/29 11:58:33;;;;;;;21.45;10.75;;;7.50;99.90;;;;;;5044905;28;20292;-74
2024/02/29 12:01:00;;;;;;;22.75;11.20;;;7.60;99.90;;;;;;5047460;28;20151;-73
2024/02/29 12:03:27;;;;;;;26.30;12.82;;;7.70;99.90;;;;;;5048463;28;20029;-73
2024/02/29 12:05:53;;;;;;;23.95;11.95;;;7.60;99.90;;;;;;5043778;28;20029;-73
2024/02/29 12:08:19;;;;;;;24.88;11.82;;;7.60;99.90;;;;;;5048772;28;20040;-74
2024/02/29 12:10:45;;;;;;;23.98;12.93;;;7.60;99.90;;;;;;5042465;28;20033;-73
2024/02/29 12:13:11;;;;;;;23.25;11.90;;;7.70;99.90;;;;;;5049395;28;20028;-74
2024/02/29 12:15:38;;;;;;;25.17;10.80;;;7.70;99.90;;;;;;5046811;28;20021;-74
2024/02/29 12:18:09;;;;;;;25.40;11.48;;;7.70;99.90;;;;;;5040478;28;20105;-73
2024/02/29 12:20:37;;;;;;;25.75;12.10;;;7.60;99.90;;;;;;5044316;28;20547;-74
2024/02/29 12:23:03;;;;;;;22.90;12.15;;;7.60;99.90;;;;;;5048602;28;20029;-75
2024/02/29 12:25:29;;;;;;;24.40;11.15;;;7.60;99.90;;;;;;5050090;28;20032;-74
2024/02/29 12:27:55;;;;;;;25.75;11.75;;;7.60;99.90;;;;;;5043715;28;20043;-74
2024/02/29 12:30:20;;;;;;;24.27;12.65;;;7.70;99.90;;;;;;5044689;28;20359;-74
2024/02/29 12:32:49;;;;;;;24.40;11.73;;;7.70;99.90;;;;;;5048396;28;20033;-74
2024/02/29 12:35:17;;;;;;;26.63;12.35;;;7.70;99.90;;;;;;5048100;28;20075;-74
2024/02/29 12:37:43;;;;;;;25.13;11.63;;;7.70;99.90;;;;;;5045004;28;20147;-74